Time;durP1;ratioP1;P1;durP2;ratioP2;P2;SDS_P1;SDS_P2;PMS_P1;PMS_P2;Temp;Humidity;BMP_temperature;BMP_pressure;BME280_temperature;BME280_humidity;BME280_pressure;Samples;Min_cycle;Max_cycle;Signal;HPM_P1;HPM_P2
2022/07/20 00:00:27;;;;;;;6.07;3.65;;;;;;;;;;5088237;28;20247;-16
2022/07/20 00:02:55;;;;;;;8.00;4.20;;;;;;;;;;5092816;28;20229;-14
2022/07/20 00:05:24;;;;;;;7.28;4.53;;;;;;;;;;5091129;28;20233;-15
2022/07/20 00:07:51;;;;;;;7.03;4.10;;;;;;;;;;5093559;28;20233;-16
2022/07/20 00:13:04;;;;;;;9.25;4.38;;;;;;;;;;5102023;27;20225;-13
2022/07/20 00:15:31;;;;;;;6.90;4.10;;;;;;;;;;5091953;28;20228;-15
2022/07/20 00:17:59;;;;;;;6.43;4.00;;;;;;;;;;5089067;28;20268;-16
2022/07/20 00:20:27;;;;;;;8.35;4.18;;;;;;;;;;5093299;28;20610;-16
2022/07/20 00:22:56;;;;;;;8.38;4.10;;;;;;;;;;5084038;28;20229;-17
2022/07/20 00:25:23;;;;;;;6.40;4.32;;;;;;;;;;5097169;28;20235;-17
2022/07/20 00:27:50;;;;;;;6.82;4.13;;;;;;;;;;5103756;28;20235;-17
2022/07/20 00:30:18;;;;;;;6.18;4.03;;;;;;;;;;5098028;27;20226;-17
2022/07/20 00:32:45;;;;;;;4.55;4.13;;;;;;;;;;5083742;28;20232;-18
2022/07/20 00:35:13;;;;;;;9.07;4.53;;;;;;;;;;5105595;27;20442;-16
2022/07/20 00:37:42;;;;;;;4.72;4.30;;;;;;;;;;5093146;28;20233;-16
2022/07/20 00:40:10;;;;;;;4.60;4.13;;;;;;;;;;5110086;27;20438;-17
2022/07/20 00:42:37;;;;;;;9.75;4.47;;;;;;;;;;5093188;28;20236;-17
2022/07/20 00:45:05;;;;;;;6.53;4.28;;;;;;;;;;5092304;28;20244;-16
2022/07/20 00:47:32;;;;;;;9.00;4.40;;;;;;;;;;5104917;28;20238;-16
2022/07/20 00:50:00;;;;;;;10.63;4.25;;;;;;;;;;5093102;27;20221;-16
2022/07/20 00:52:27;;;;;;;7.03;4.00;;;;;;;;;;5085885;28;20237;-17
2022/07/20 00:54:56;;;;;;;7.65;4.18;;;;;;;;;;5102302;28;20232;-16
2022/07/20 00:57:23;;;;;;;7.90;4.38;;;;;;;;;;5101966;28;20235;-17
2022/07/20 00:59:51;;;;;;;8.10;4.53;;;;;;;;;;5097767;27;20771;-14
2022/07/20 01:02:18;;;;;;;6.25;4.45;;;;;;;;;;5101361;27;20216;-14
2022/07/20 01:04:45;;;;;;;5.97;4.10;;;;;;;;;;5098279;27;21036;-16
2022/07/20 01:07:13;;;;;;;6.00;4.28;;;;;;;;;;5091092;28;20255;-16
2022/07/20 01:09:40;;;;;;;6.13;4.90;;;;;;;;;;5102817;27;20228;-16
2022/07/20 01:12:10;;;;;;;10.02;4.53;;;;;;;;;;5110385;28;20236;-16
2022/07/20 01:14:37;;;;;;;6.65;4.50;;;;;;;;;;5111333;27;20326;-17
2022/07/20 01:17:05;;;;;;;9.10;4.40;;;;;;;;;;5099178;27;20236;-16
2022/07/20 01:19:32;;;;;;;6.95;4.03;;;;;;;;;;5099914;28;20224;-17
2022/07/20 01:22:01;;;;;;;5.95;4.28;;;;;;;;;;5089751;27;21759;-17
2022/07/20 01:24:28;;;;;;;4.38;3.85;;;;;;;;;;5091075;27;20243;-17
2022/07/20 01:26:56;;;;;;;8.20;4.30;;;;;;;;;;5089664;28;20229;-16
2022/07/20 01:29:23;;;;;;;9.75;4.60;;;;;;;;;;5101270;28;20220;-16
2022/07/20 01:31:51;;;;;;;7.55;4.25;;;;;;;;;;5096809;28;20307;-17
2022/07/20 01:34:19;;;;;;;7.07;4.15;;;;;;;;;;5083517;28;20260;-17
2022/07/20 01:36:46;;;;;;;7.20;4.85;;;;;;;;;;5084017;28;20229;-13
2022/07/20 01:39:15;;;;;;;7.85;4.47;;;;;;;;;;5093304;28;20233;-15
2022/07/20 01:41:42;;;;;;;15.52;4.70;;;;;;;;;;5094380;27;20240;-16
2022/07/20 01:44:09;;;;;;;7.43;4.43;;;;;;;;;;5096808;27;20232;-16
2022/07/20 01:46:37;;;;;;;7.22;4.32;;;;;;;;;;5092243;28;20327;-16
2022/07/20 01:49:04;;;;;;;8.05;4.68;;;;;;;;;;5112544;27;20227;-16
2022/07/20 01:51:32;;;;;;;5.00;4.03;;;;;;;;;;5088848;27;20227;-16
2022/07/20 01:53:59;;;;;;;9.13;4.20;;;;;;;;;;5092007;28;20981;-17
2022/07/20 01:56:28;;;;;;;8.18;4.35;;;;;;;;;;5081901;28;20704;-16
2022/07/20 01:58:55;;;;;;;7.72;4.60;;;;;;;;;;5093361;27;20278;-17
2022/07/20 02:01:23;;;;;;;9.05;3.97;;;;;;;;;;5087775;28;20302;-16
2022/07/20 02:03:50;;;;;;;8.48;4.43;;;;;;;;;;5100717;27;20232;-15
2022/07/20 02:06:18;;;;;;;6.20;3.90;;;;;;;;;;5097649;27;20865;-17
2022/07/20 02:08:45;;;;;;;8.82;4.18;;;;;;;;;;5097766;28;20312;-17
2022/07/20 02:11:13;;;;;;;9.10;4.50;;;;;;;;;;5098996;27;20244;-16
2022/07/20 02:13:42;;;;;;;6.60;4.20;;;;;;;;;;5096440;28;20702;-17
2022/07/20 02:16:19;;;;;;;6.28;4.32;;;;;;;;;;5084622;27;20225;-17
2022/07/20 02:18:47;;;;;;;7.15;4.13;;;;;;;;;;5104997;28;20704;-15
2022/07/20 02:21:15;;;;;;;6.82;4.15;;;;;;;;;;5099454;27;20263;-16
2022/07/20 02:23:42;;;;;;;5.38;4.22;;;;;;;;;;5088834;28;21053;-17
2022/07/20 02:26:10;;;;;;;9.80;4.57;;;;;;;;;;5088284;28;20232;-17
2022/07/20 02:28:37;;;;;;;6.00;4.05;;;;;;;;;;5097172;28;20252;-16
2022/07/20 02:31:06;;;;;;;5.80;4.05;;;;;;;;;;5094480;28;20319;-17
2022/07/20 02:33:33;;;;;;;6.05;4.30;;;;;;;;;;5086409;28;20231;-16
2022/07/20 02:36:01;;;;;;;6.88;4.40;;;;;;;;;;5095884;27;20229;-17
2022/07/20 02:38:28;;;;;;;9.18;4.32;;;;;;;;;;5103955;28;20232;-17
2022/07/20 02:40:56;;;;;;;8.30;4.32;;;;;;;;;;5089295;27;20243;-13
2022/07/20 02:43:24;;;;;;;7.78;4.40;;;;;;;;;;5109616;27;20255;-15
2022/07/20 02:45:51;;;;;;;9.40;4.82;;;;;;;;;;5094709;27;20229;-17
2022/07/20 02:48:20;;;;;;;8.57;4.43;;;;;;;;;;5090101;28;20231;-17
2022/07/20 02:50:47;;;;;;;7.90;5.03;;;;;;;;;;5086097;28;20237;-17
2022/07/20 02:53:14;;;;;;;5.78;4.57;;;;;;;;;;5087263;28;20230;-16
2022/07/20 02:55:42;;;;;;;6.18;4.13;;;;;;;;;;5105795;28;20228;-16
2022/07/20 02:58:10;;;;;;;6.30;3.92;;;;;;;;;;5077255;28;20232;-16
2022/07/20 03:00:37;;;;;;;8.98;4.00;;;;;;;;;;5089630;28;21011;-17
2022/07/20 03:03:05;;;;;;;10.75;4.63;;;;;;;;;;5077925;28;20229;-17
2022/07/20 03:05:33;;;;;;;8.02;4.60;;;;;;;;;;5098541;28;20707;-16
2022/07/20 03:08:01;;;;;;;7.63;4.20;;;;;;;;;;5094303;28;20235;-17
2022/07/20 03:10:28;;;;;;;10.38;4.55;;;;;;;;;;5097580;27;20233;-16
2022/07/20 03:12:55;;;;;;;9.25;4.10;;;;;;;;;;5071835;28;20236;-17
2022/07/20 03:15:23;;;;;;;9.93;4.95;;;;;;;;;;5085130;28;20226;-17
2022/07/20 03:17:51;;;;;;;8.30;4.75;;;;;;;;;;5085639;28;20237;-17
2022/07/20 03:20:19;;;;;;;7.38;4.28;;;;;;;;;;5073463;28;20321;-16
2022/07/20 03:22:48;;;;;;;5.45;4.38;;;;;;;;;;5082148;28;20243;-16
2022/07/20 03:25:15;;;;;;;5.68;4.15;;;;;;;;;;5096832;28;20240;-17
2022/07/20 03:27:43;;;;;;;6.70;4.82;;;;;;;;;;5095345;28;20232;-16
2022/07/20 03:30:10;;;;;;;6.95;4.35;;;;;;;;;;5107566;27;20255;-14
2022/07/20 03:32:38;;;;;;;7.82;4.75;;;;;;;;;;5090628;28;20225;-16
2022/07/20 03:35:05;;;;;;;7.82;4.60;;;;;;;;;;5104129;28;20226;-15
2022/07/20 03:37:33;;;;;;;5.53;4.18;;;;;;;;;;5094190;28;20340;-16
2022/07/20 03:40:03;;;;;;;9.57;4.55;;;;;;;;;;5093423;28;20247;-17
2022/07/20 03:42:30;;;;;;;8.70;4.50;;;;;;;;;;5103641;28;20396;-17
2022/07/20 03:44:58;;;;;;;7.13;4.40;;;;;;;;;;5085834;28;20237;-17
2022/07/20 03:47:25;;;;;;;9.10;5.07;;;;;;;;;;5097787;28;20228;-16
2022/07/20 03:49:52;;;;;;;6.75;4.40;;;;;;;;;;5111175;27;20234;-16
2022/07/20 03:52:20;;;;;;;9.10;4.65;;;;;;;;;;5090130;28;20236;-17
2022/07/20 03:54:48;;;;;;;7.82;4.20;;;;;;;;;;5100709;28;20296;-17
2022/07/20 03:57:17;;;;;;;5.25;4.47;;;;;;;;;;5088605;28;20236;-16
2022/07/20 03:59:45;;;;;;;6.05;4.45;;;;;;;;;;5092725;28;20240;-17
2022/07/20 04:02:12;;;;;;;6.93;4.68;;;;;;;;;;5105502;28;21108;-16
2022/07/20 04:04:45;;;;;;;7.20;5.13;;;;;;;;;;5099299;28;20976;-16
2022/07/20 04:07:13;;;;;;;11.75;4.90;;;;;;;;;;5093223;28;20257;-17
2022/07/20 04:09:46;;;;;;;7.47;4.57;;;;;;;;;;5089542;27;20235;-16
2022/07/20 04:12:14;;;;;;;10.43;5.05;;;;;;;;;;5086341;28;20229;-16
2022/07/20 04:14:43;;;;;;;6.82;4.85;;;;;;;;;;5099033;28;20225;-17
2022/07/20 04:17:11;;;;;;;10.15;4.93;;;;;;;;;;5090701;28;20331;-16
2022/07/20 04:19:38;;;;;;;9.82;4.82;;;;;;;;;;5097826;28;20233;-14
2022/07/20 04:22:05;;;;;;;6.88;5.10;;;;;;;;;;5088443;28;20233;-15
2022/07/20 04:24:33;;;;;;;8.35;5.10;;;;;;;;;;5091220;28;20233;-15
2022/07/20 04:27:00;;;;;;;8.25;4.88;;;;;;;;;;5084686;28;20885;-17
2022/07/20 04:29:28;;;;;;;10.75;5.30;;;;;;;;;;5082834;28;20221;-16
2022/07/20 04:31:56;;;;;;;5.10;4.60;;;;;;;;;;5092234;28;20355;-16
2022/07/20 04:34:24;;;;;;;30.10;5.60;;;;;;;;;;5079423;28;20695;-16
2022/07/20 04:36:51;;;;;;;8.25;4.75;;;;;;;;;;5094574;28;20239;-16
2022/07/20 04:39:19;;;;;;;10.25;4.82;;;;;;;;;;5112691;27;20227;-15
2022/07/20 04:41:46;;;;;;;7.40;5.20;;;;;;;;;;5100240;28;20253;-17
2022/07/20 04:44:13;;;;;;;7.68;4.38;;;;;;;;;;5087626;27;21073;-17
2022/07/20 04:46:41;;;;;;;12.85;4.80;;;;;;;;;;5111960;27;20228;-16
2022/07/20 04:49:10;;;;;;;13.05;5.10;;;;;;;;;;5099244;27;20618;-17
2022/07/20 04:51:37;;;;;;;8.63;4.90;;;;;;;;;;5102395;27;20703;-16
2022/07/20 04:54:05;;;;;;;8.07;5.10;;;;;;;;;;5080122;27;20233;-17
2022/07/20 04:56:32;;;;;;;7.20;5.18;;;;;;;;;;5095819;28;21061;-17
2022/07/20 04:58:59;;;;;;;10.20;4.38;;;;;;;;;;5092078;28;20827;-16
2022/07/20 05:01:27;;;;;;;7.57;4.65;;;;;;;;;;5092445;28;20726;-17
2022/07/20 05:03:55;;;;;;;6.30;4.50;;;;;;;;;;5086749;28;20241;-16
2022/07/20 05:06:24;;;;;;;8.13;4.57;;;;;;;;;;5092004;28;20251;-17
2022/07/20 05:08:52;;;;;;;8.95;4.88;;;;;;;;;;5092872;28;20888;-16
2022/07/20 05:11:20;;;;;;;14.70;5.47;;;;;;;;;;5087643;28;20232;-16
2022/07/20 05:13:48;;;;;;;8.38;5.32;;;;;;;;;;5092636;28;20240;-16
2022/07/20 05:16:16;;;;;;;7.22;4.88;;;;;;;;;;5091564;28;20221;-17
2022/07/20 05:18:43;;;;;;;10.77;5.10;;;;;;;;;;5083469;28;20230;-17
2022/07/20 05:21:11;;;;;;;10.70;5.50;;;;;;;;;;5082487;28;20225;-17
2022/07/20 05:23:39;;;;;;;14.32;5.70;;;;;;;;;;5085221;28;20346;-16
2022/07/20 05:26:07;;;;;;;9.77;5.20;;;;;;;;;;5090548;28;20232;-17
2022/07/20 05:28:34;;;;;;;11.98;6.90;;;;;;;;;;5079606;28;20676;-16
2022/07/20 05:31:02;;;;;;;8.60;6.63;;;;;;;;;;5086848;28;20267;-18
2022/07/20 05:33:29;;;;;;;15.27;7.22;;;;;;;;;;5078299;28;20287;-12
2022/07/20 05:35:57;;;;;;;11.10;8.15;;;;;;;;;;5081403;28;20261;-16
2022/07/20 05:38:24;;;;;;;13.15;8.30;;;;;;;;;;5105229;28;20227;-16
2022/07/20 05:40:53;;;;;;;14.98;8.90;;;;;;;;;;5085043;28;20227;-17
2022/07/20 05:43:20;;;;;;;14.18;9.20;;;;;;;;;;5110858;27;20319;-17
2022/07/20 05:45:48;;;;;;;12.35;9.73;;;;;;;;;;5088527;28;20239;-17
2022/07/20 05:48:15;;;;;;;18.95;9.68;;;;;;;;;;5083825;28;20224;-17
2022/07/20 05:50:43;;;;;;;18.63;10.48;;;;;;;;;;5094230;28;20231;-16
2022/07/20 05:53:10;;;;;;;15.02;10.65;;;;;;;;;;5090240;28;20224;-17
2022/07/20 05:55:38;;;;;;;20.90;10.55;;;;;;;;;;5090094;28;20225;-18
2022/07/20 05:58:06;;;;;;;17.15;10.63;;;;;;;;;;5085695;28;20243;-17
2022/07/20 06:00:34;;;;;;;23.35;12.23;;;;;;;;;;5088723;28;20237;-16
2022/07/20 06:03:02;;;;;;;20.98;12.65;;;;;;;;;;5099250;28;20248;-18
2022/07/20 06:05:29;;;;;;;18.63;12.60;;;;;;;;;;5092236;28;20233;-16
2022/07/20 06:07:57;;;;;;;22.77;14.52;;;;;;;;;;5074856;28;21053;-18
2022/07/20 06:10:24;;;;;;;19.30;14.57;;;;;;;;;;5091075;28;20320;-18
2022/07/20 06:12:51;;;;;;;18.20;12.82;;;;;;;;;;5091576;28;20233;-17
2022/07/20 06:15:20;;;;;;;28.77;15.98;;;;;;;;;;5091665;28;20227;-17
2022/07/20 06:17:48;;;;;;;28.13;17.13;;;;;;;;;;5091638;28;20235;-17
2022/07/20 06:20:15;;;;;;;23.63;17.02;;;;;;;;;;5099537;28;20228;-18
2022/07/20 06:22:43;;;;;;;27.17;17.35;;;;;;;;;;5096174;27;20317;-17
2022/07/20 06:25:11;;;;;;;33.90;18.67;;;;;;;;;;5088461;28;20239;-13
2022/07/20 06:27:38;;;;;;;57.97;21.40;;;;;;;;;;5077353;28;20319;-17
2022/07/20 06:30:06;;;;;;;33.55;20.45;;;;;;;;;;5077875;28;20228;-18
2022/07/20 06:32:34;;;;;;;35.15;20.48;;;;;;;;;;5072333;28;20674;-17
2022/07/20 06:35:02;;;;;;;29.10;20.25;;;;;;;;;;5087482;28;20997;-17
2022/07/20 06:37:29;;;;;;;37.05;21.85;;;;;;;;;;5092063;28;20254;-17
2022/07/20 06:39:57;;;;;;;28.83;21.83;;;;;;;;;;5086082;28;21010;-16
2022/07/20 06:42:24;;;;;;;39.80;23.48;;;;;;;;;;5081569;28;20243;-17
2022/07/20 06:44:51;;;;;;;30.70;22.83;;;;;;;;;;5089397;28;20262;-18
2022/07/20 06:47:19;;;;;;;39.22;24.58;;;;;;;;;;5095135;28;20234;-18
2022/07/20 06:49:47;;;;;;;34.47;24.58;;;;;;;;;;5095154;27;20472;-18
2022/07/20 06:52:15;;;;;;;38.95;24.83;;;;;;;;;;5084266;28;20230;-17
2022/07/20 06:54:42;;;;;;;39.00;26.20;;;;;;;;;;5084418;28;20229;-19
2022/07/20 06:57:10;;;;;;;33.70;26.08;;;;;;;;;;5084240;28;20236;-18
2022/07/20 06:59:38;;;;;;;40.10;27.30;;;;;;;;;;5080061;28;20276;-17
2022/07/20 07:02:05;;;;;;;52.72;28.33;;;;;;;;;;5086674;28;20715;-18
2022/07/20 07:04:33;;;;;;;38.42;28.33;;;;;;;;;;5081641;28;20252;-18
2022/07/20 07:07:02;;;;;;;41.85;28.02;;;;;;;;;;5090582;28;20232;-18
2022/07/20 07:09:30;;;;;;;36.50;29.55;;;;;;;;;;5076954;28;20233;-18
2022/07/20 07:11:57;;;;;;;44.00;28.55;;;;;;;;;;5084745;28;20227;-18
2022/07/20 07:14:25;;;;;;;33.78;27.45;;;;;;;;;;5090780;28;20231;-16
2022/07/20 07:16:53;;;;;;;43.45;29.77;;;;;;;;;;5086909;28;20285;-17
2022/07/20 07:19:20;;;;;;;45.92;30.58;;;;;;;;;;5090572;28;20266;-18
2022/07/20 07:21:47;;;;;;;38.97;29.77;;;;;;;;;;5084214;28;20220;-18
2022/07/20 07:24:16;;;;;;;40.75;30.38;;;;;;;;;;5078256;28;20256;-18
2022/07/20 07:26:44;;;;;;;39.25;30.10;;;;;;;;;;5089736;28;20232;-18
2022/07/20 07:29:11;;;;;;;37.92;29.52;;;;;;;;;;5084642;28;20836;-18
2022/07/20 07:31:38;;;;;;;40.38;30.38;;;;;;;;;;5086422;28;20719;-18
2022/07/20 07:34:06;;;;;;;39.08;30.25;;;;;;;;;;5080275;28;20244;-18
2022/07/20 07:36:33;;;;;;;39.08;30.75;;;;;;;;;;5085293;28;20275;-18
2022/07/20 07:39:04;;;;;;;40.58;29.42;;;;;;;;;;5085644;28;20229;-18
2022/07/20 07:41:33;;;;;;;38.90;30.02;;;;;;;;;;5083570;28;20229;-18
2022/07/20 07:44:00;;;;;;;38.70;29.25;;;;;;;;;;5083307;28;20350;-18
2022/07/20 07:46:28;;;;;;;42.33;30.02;;;;;;;;;;5085803;28;20319;-17
2022/07/20 07:48:55;;;;;;;39.42;29.55;;;;;;;;;;5089620;28;20225;-18
2022/07/20 07:51:23;;;;;;;38.20;29.50;;;;;;;;;;5093039;28;20229;-18
2022/07/20 07:53:50;;;;;;;40.53;30.23;;;;;;;;;;5089690;28;20231;-18
2022/07/20 07:56:18;;;;;;;42.55;30.25;;;;;;;;;;5086866;28;20233;-15
2022/07/20 07:58:46;;;;;;;37.08;29.20;;;;;;;;;;5090082;28;20220;-17
2022/07/20 08:01:34;;;;;;;40.38;29.35;;;;;;;;;;5089393;28;20221;-18
2022/07/20 08:04:02;;;;;;;35.03;30.33;;;;;;;;;;5090027;28;20365;-19
2022/07/20 08:06:29;;;;;;;41.38;32.13;;;;;;;;;;5088983;28;20235;-19
2022/07/20 08:08:57;;;;;;;46.95;31.20;;;;;;;;;;5089942;28;20229;-18
2022/07/20 08:11:29;;;;;;;42.13;32.33;;;;;;;;;;5087167;28;20316;-18
2022/07/20 08:14:00;;;;;;;40.35;31.92;;;;;;;;;;5089609;28;20304;-17
2022/07/20 08:16:27;;;;;;;42.67;30.98;;;;;;;;;;5086315;28;20239;-18
2022/07/20 08:18:54;;;;;;;41.60;31.75;;;;;;;;;;5089339;28;20261;-17
2022/07/20 08:21:22;;;;;;;43.22;31.50;;;;;;;;;;5079440;28;20232;-18
2022/07/20 08:23:49;;;;;;;41.38;32.38;;;;;;;;;;5092570;28;20233;-17
2022/07/20 08:26:17;;;;;;;36.28;29.63;;;;;;;;;;5092075;28;20240;-18
2022/07/20 08:28:45;;;;;;;39.75;30.27;;;;;;;;;;5092413;28;20259;-18
2022/07/20 08:31:13;;;;;;;39.17;29.45;;;;;;;;;;5092570;28;20702;-18
2022/07/20 08:33:41;;;;;;;40.47;30.17;;;;;;;;;;5094987;28;21008;-17
2022/07/20 08:36:08;;;;;;;38.03;28.33;;;;;;;;;;5085426;28;20239;-18
2022/07/20 08:38:36;;;;;;;34.75;27.98;;;;;;;;;;5093026;28;20231;-18
2022/07/20 08:41:03;;;;;;;31.98;27.52;;;;;;;;;;5079826;28;20279;-17
2022/07/20 08:43:30;;;;;;;32.83;27.17;;;;;;;;;;5083637;28;20237;-18
2022/07/20 08:45:58;;;;;;;38.58;27.67;;;;;;;;;;5090517;28;20243;-17
2022/07/20 08:48:27;;;;;;;36.75;26.58;;;;;;;;;;5079834;28;20235;-18
2022/07/20 08:50:54;;;;;;;34.92;26.45;;;;;;;;;;5090292;28;20237;-17
2022/07/20 08:53:21;;;;;;;33.15;26.13;;;;;;;;;;5092931;28;20891;-17
2022/07/20 08:55:49;;;;;;;31.77;24.83;;;;;;;;;;5084034;28;20225;-18
2022/07/20 08:58:16;;;;;;;33.50;24.40;;;;;;;;;;5090162;28;20236;-17
2022/07/20 09:00:44;;;;;;;28.25;23.60;;;;;;;;;;5084910;28;20245;-18
2022/07/20 09:03:11;;;;;;;30.52;22.05;;;;;;;;;;5089125;28;20255;-18
2022/07/20 09:05:40;;;;;;;27.85;22.73;;;;;;;;;;5088925;28;20240;-17
2022/07/20 09:08:11;;;;;;;31.25;22.48;;;;;;;;;;5090034;28;20233;-17
2022/07/20 09:10:39;;;;;;;32.28;22.13;;;;;;;;;;5082674;28;20229;-17
2022/07/20 09:13:07;;;;;;;27.38;21.70;;;;;;;;;;5087769;28;20229;-18
2022/07/20 09:15:36;;;;;;;29.17;21.80;;;;;;;;;;5083186;28;20427;-18
2022/07/20 09:18:07;;;;;;;29.33;20.88;;;;;;;;;;5086467;28;20225;-18
2022/07/20 09:20:35;;;;;;;29.60;22.67;;;;;;;;;;5088191;28;20230;-17
2022/07/20 09:23:04;;;;;;;29.40;21.42;;;;;;;;;;5085693;28;20791;-17
2022/07/20 09:25:31;;;;;;;26.98;20.52;;;;;;;;;;5086906;28;20241;-17
2022/07/20 09:27:58;;;;;;;27.13;20.50;;;;;;;;;;5088868;28;20225;-18
2022/07/20 09:30:26;;;;;;;29.42;20.85;;;;;;;;;;5081919;28;20255;-18
2022/07/20 09:32:54;;;;;;;26.15;19.42;;;;;;;;;;5087603;28;20229;-18
2022/07/20 09:35:22;;;;;;;27.40;19.20;;;;;;;;;;5085463;28;20311;-17
2022/07/20 09:37:57;;;;;;;21.90;18.05;;;;;;;;;;5085825;28;20231;-18
2022/07/20 09:40:26;;;;;;;21.55;18.42;;;;;;;;;;5082765;28;20229;-18
2022/07/20 09:42:53;;;;;;;27.60;17.98;;;;;;;;;;5085520;28;20229;-15
2022/07/20 09:45:25;;;;;;;20.83;17.38;;;;;;;;;;5091625;28;20259;-15
2022/07/20 09:48:10;;;;;;;25.88;17.40;;;;;;;;;;5089370;28;20229;-15
2022/07/20 09:50:38;;;;;;;18.95;15.75;;;;;;;;;;5087512;28;20237;-15
2022/07/20 09:53:05;;;;;;;20.95;16.30;;;;;;;;;;5084774;28;20261;-15
2022/07/20 09:55:34;;;;;;;22.25;16.10;;;;;;;;;;5090704;28;20231;-15
2022/07/20 09:58:02;;;;;;;24.42;16.52;;;;;;;;;;5081651;27;20325;-15
2022/07/20 10:00:29;;;;;;;24.50;15.50;;;;;;;;;;5091045;28;20702;-16
2022/07/20 10:02:57;;;;;;;20.85;16.30;;;;;;;;;;5091974;28;20233;-16
2022/07/20 10:05:26;;;;;;;20.45;15.32;;;;;;;;;;5087257;28;20240;-15
2022/07/20 10:07:53;;;;;;;19.80;15.32;;;;;;;;;;5091952;28;20600;-11
2022/07/20 10:10:21;;;;;;;20.88;15.23;;;;;;;;;;5088122;28;20233;-13
2022/07/20 10:12:49;;;;;;;23.58;15.38;;;;;;;;;;5089425;28;20228;-15
2022/07/20 10:15:24;;;;;;;21.27;15.90;;;;;;;;;;5089985;28;20598;-18
2022/07/20 10:17:52;;;;;;;21.33;15.40;;;;;;;;;;5089167;28;20261;-17
2022/07/20 10:20:28;;;;;;;23.67;15.55;;;;;;;;;;5090430;28;20235;-18
2022/07/20 10:23:15;;;;;;;20.20;14.90;;;;;;;;;;5083087;28;20579;-18
2022/07/20 10:25:42;;;;;;;17.27;14.30;;;;;;;;;;5089447;28;20283;-18
2022/07/20 10:28:26;;;;;;;17.65;13.77;;;;;;;;;;5082689;28;20217;-18
2022/07/20 10:30:53;;;;;;;20.15;13.60;;;;;;;;;;5090672;28;20236;-17
2022/07/20 10:33:21;;;;;;;13.50;11.73;;;;;;;;;;5090860;28;20228;-18
2022/07/20 10:35:49;;;;;;;16.95;12.77;;;;;;;;;;5082157;28;20711;-18
2022/07/20 10:38:16;;;;;;;16.27;12.13;;;;;;;;;;5091489;28;20236;-18
2022/07/20 10:43:28;;;;;;;18.95;12.70;;;;;;;;;;5081222;28;20277;-18
2022/07/20 10:45:56;;;;;;;18.52;11.80;;;;;;;;;;5084867;28;20237;-15
2022/07/20 10:48:23;;;;;;;19.25;11.70;;;;;;;;;;5085496;28;20225;-17
2022/07/20 10:50:51;;;;;;;16.98;11.27;;;;;;;;;;5085017;28;20237;-18
2022/07/20 10:53:32;;;;;;;15.82;11.23;;;;;;;;;;5084462;28;20759;-17
2022/07/20 10:56:08;;;;;;;18.05;11.27;;;;;;;;;;5083645;28;20225;-18
2022/07/20 10:58:37;;;;;;;18.23;10.90;;;;;;;;;;5081539;28;20233;-18
2022/07/20 11:01:05;;;;;;;17.25;11.00;;;;;;;;;;5078730;28;20248;-18
2022/07/20 11:03:36;;;;;;;13.95;11.60;;;;;;;;;;5084941;28;20227;-17
2022/07/20 11:06:07;;;;;;;13.82;11.70;;;;;;;;;;5071079;28;20705;-17
2022/07/20 11:08:36;;;;;;;15.63;11.27;;;;;;;;;;5077226;28;20225;-18
2022/07/20 11:11:04;;;;;;;12.95;10.15;;;;;;;;;;5084057;28;20730;-18
2022/07/20 11:13:32;;;;;;;15.82;11.18;;;;;;;;;;5085076;28;20284;-18
2022/07/20 11:16:01;;;;;;;13.82;9.75;;;;;;;;;;5089444;28;20220;-18
2022/07/20 11:18:33;;;;;;;12.45;9.23;;;;;;;;;;5087950;28;20237;-17
2022/07/20 11:21:01;;;;;;;13.43;9.90;;;;;;;;;;5085047;28;20229;-18
2022/07/20 11:23:29;;;;;;;15.20;9.88;;;;;;;;;;5091095;28;21031;-18
2022/07/20 11:25:57;;;;;;;12.82;9.35;;;;;;;;;;5081744;28;20255;-17
2022/07/20 11:28:25;;;;;;;13.00;9.30;;;;;;;;;;5081221;28;20630;-17
2022/07/20 11:30:52;;;;;;;11.95;9.30;;;;;;;;;;5085349;28;20244;-18
2022/07/20 11:33:25;;;;;;;16.23;9.02;;;;;;;;;;5084471;28;20257;-17
2022/07/20 11:35:53;;;;;;;12.80;9.13;;;;;;;;;;5082866;28;20233;-17
2022/07/20 11:38:21;;;;;;;12.10;9.20;;;;;;;;;;5077862;28;20419;-19
2022/07/20 11:40:58;;;;;;;16.40;9.38;;;;;;;;;;5082916;28;20275;-18
2022/07/20 11:43:26;;;;;;;10.45;8.98;;;;;;;;;;5083772;28;20228;-17
2022/07/20 11:45:53;;;;;;;13.18;9.18;;;;;;;;;;5085494;28;20244;-17
2022/07/20 11:48:21;;;;;;;13.75;9.23;;;;;;;;;;5083520;28;20228;-16
2022/07/20 11:51:10;;;;;;;12.77;10.43;;;;;;;;;;5086454;28;20323;-17
2022/07/20 11:53:37;;;;;;;10.50;9.30;;;;;;;;;;5082775;28;20233;-16
2022/07/20 11:56:05;;;;;;;11.27;9.02;;;;;;;;;;5089403;28;20942;-16
2022/07/20 11:58:33;;;;;;;9.77;8.73;;;;;;;;;;5089839;28;20323;-16
2022/07/20 12:01:01;;;;;;;14.80;8.68;;;;;;;;;;5088006;28;20240;-17
2022/07/20 12:03:29;;;;;;;10.15;8.88;;;;;;;;;;5090981;28;20246;-20
2022/07/20 12:05:57;;;;;;;12.60;9.13;;;;;;;;;;5081806;28;20241;-18
2022/07/20 12:08:26;;;;;;;13.00;8.85;;;;;;;;;;5090109;28;20850;-17
2022/07/20 12:10:53;;;;;;;13.18;9.00;;;;;;;;;;5082874;28;20245;-17
2022/07/20 12:13:21;;;;;;;13.98;9.27;;;;;;;;;;5085954;28;20703;-17
2022/07/20 12:15:52;;;;;;;10.98;8.77;;;;;;;;;;5084775;28;20243;-17
2022/07/20 12:18:32;;;;;;;11.60;8.77;;;;;;;;;;5087421;28;20259;-17
2022/07/20 12:21:06;;;;;;;15.80;9.52;;;;;;;;;;5088176;28;20620;-20
2022/07/20 12:23:35;;;;;;;14.90;10.70;;;;;;;;;;5089765;28;20847;-18
2022/07/20 12:26:03;;;;;;;12.15;9.88;;;;;;;;;;5088181;28;20473;-18
2022/07/20 12:28:31;;;;;;;13.02;9.90;;;;;;;;;;5087183;28;20231;-17
2022/07/20 12:31:18;;;;;;;13.73;10.00;;;;;;;;;;5083448;28;20228;-17
2022/07/20 12:34:07;;;;;;;12.48;8.98;;;;;;;;;;5089354;28;20688;-16
2022/07/20 12:36:35;;;;;;;14.40;9.63;;;;;;;;;;5083130;28;20229;-19
2022/07/20 12:39:04;;;;;;;11.35;8.73;;;;;;;;;;5089400;28;20233;-17
2022/07/20 12:41:32;;;;;;;9.73;8.70;;;;;;;;;;5088483;28;20650;-17
2022/07/20 12:44:26;;;;;;;9.60;8.60;;;;;;;;;;5085349;28;20835;-17
2022/07/20 12:46:53;;;;;;;9.10;8.20;;;;;;;;;;5082156;28;21311;-18
2022/07/20 12:49:21;;;;;;;9.38;8.45;;;;;;;;;;5089557;28;20271;-17
2022/07/20 12:51:48;;;;;;;9.00;8.00;;;;;;;;;;5087035;28;20236;-19
2022/07/20 12:54:17;;;;;;;11.88;8.00;;;;;;;;;;5089369;28;20248;-18
2022/07/20 12:57:04;;;;;;;9.48;8.38;;;;;;;;;;5088903;28;20228;-16
2022/07/20 12:59:32;;;;;;;12.82;8.02;;;;;;;;;;5088781;28;20235;-17
2022/07/20 13:01:59;;;;;;;13.38;8.88;;;;;;;;;;5087961;28;20232;-17
2022/07/20 13:04:27;;;;;;;10.27;8.40;;;;;;;;;;5088753;28;20240;-17
2022/07/20 13:07:01;;;;;;;11.75;8.77;;;;;;;;;;5088147;28;20943;-18
2022/07/20 13:09:30;;;;;;;10.20;8.48;;;;;;;;;;5086461;28;20993;-18
2022/07/20 13:11:57;;;;;;;10.32;8.40;;;;;;;;;;5085699;28;20330;-18
2022/07/20 13:14:25;;;;;;;9.48;8.48;;;;;;;;;;5084399;28;21074;-18
2022/07/20 13:16:52;;;;;;;10.95;7.95;;;;;;;;;;5088844;28;21093;-18
2022/07/20 13:19:20;;;;;;;11.95;8.52;;;;;;;;;;5090062;27;20229;-18
2022/07/20 13:21:48;;;;;;;10.13;8.13;;;;;;;;;;5094849;28;20229;-18
2022/07/20 13:24:15;;;;;;;11.77;8.40;;;;;;;;;;5086165;28;20233;-15
2022/07/20 13:26:44;;;;;;;12.15;7.85;;;;;;;;;;5084587;28;20241;-17
2022/07/20 13:29:11;;;;;;;10.52;7.95;;;;;;;;;;5084572;28;20235;-18
2022/07/20 13:31:39;;;;;;;12.95;8.60;;;;;;;;;;5087448;28;20612;-17
2022/07/20 13:34:17;;;;;;;12.75;8.45;;;;;;;;;;5089980;28;20237;-15
2022/07/20 13:36:44;;;;;;;12.75;8.23;;;;;;;;;;5089124;28;20273;-17
2022/07/20 13:39:12;;;;;;;12.80;8.07;;;;;;;;;;5090879;28;20316;-17
2022/07/20 13:41:39;;;;;;;12.90;8.20;;;;;;;;;;5085610;28;20269;-17
2022/07/20 13:44:08;;;;;;;9.07;7.85;;;;;;;;;;5086203;28;20735;-18
2022/07/20 13:46:36;;;;;;;9.40;8.23;;;;;;;;;;5087612;28;20323;-18
2022/07/20 13:49:03;;;;;;;9.80;8.18;;;;;;;;;;5087593;28;20232;-18
2022/07/20 13:51:31;;;;;;;9.68;7.60;;;;;;;;;;5086697;28;20734;-18
2022/07/20 13:54:19;;;;;;;9.95;7.57;;;;;;;;;;5081936;28;20228;-19
2022/07/20 13:56:46;;;;;;;11.43;8.25;;;;;;;;;;5086968;28;20978;-18
2022/07/20 13:59:15;;;;;;;11.90;7.93;;;;;;;;;;5087945;28;20722;-18
2022/07/20 14:01:43;;;;;;;9.55;7.95;;;;;;;;;;5082279;28;20244;-17
2022/07/20 14:04:11;;;;;;;12.23;7.70;;;;;;;;;;5083041;28;21007;-18
2022/07/20 14:06:39;;;;;;;12.88;8.20;;;;;;;;;;5084441;28;20241;-15
2022/07/20 14:09:06;;;;;;;13.10;8.40;;;;;;;;;;5085475;28;20231;-17
2022/07/20 14:11:35;;;;;;;12.20;9.18;;;;;;;;;;5089764;28;20241;-17
2022/07/20 14:14:04;;;;;;;14.32;10.13;;;;;;;;;;5084794;28;20234;-18
2022/07/20 14:16:33;;;;;;;18.42;11.23;;;;;;;;;;5080078;28;20234;-18
2022/07/20 14:19:01;;;;;;;22.10;15.73;;;;;;;;;;5082475;28;21088;-17
2022/07/20 14:21:28;;;;;;;27.95;20.63;;;;;;;;;;5088731;28;20324;-17
2022/07/20 14:23:56;;;;;;;32.03;21.25;;;;;;;;;;5086064;28;20705;-18
2022/07/20 14:26:23;;;;;;;37.90;24.33;;;;;;;;;;5082619;28;20314;-18
2022/07/20 14:28:50;;;;;;;37.47;27.75;;;;;;;;;;5087612;28;20255;-17
2022/07/20 14:31:18;;;;;;;48.35;31.27;;;;;;;;;;5081796;28;20615;-18
2022/07/20 14:33:47;;;;;;;44.65;32.47;;;;;;;;;;5080126;28;20240;-18
2022/07/20 14:36:15;;;;;;;48.05;31.88;;;;;;;;;;5085407;28;20315;-18
2022/07/20 14:38:42;;;;;;;40.03;29.60;;;;;;;;;;5084954;28;20233;-18
2022/07/20 14:41:09;;;;;;;38.97;27.17;;;;;;;;;;5084429;28;20283;-18